Time;durP1;ratioP1;P1;durP2;ratioP2;P2;SDS_P1;SDS_P2;PMS_P1;PMS_P2;Temp;Humidity;BMP_temperature;BMP_pressure;BME280_temperature;BME280_humidity;BME280_pressure;Samples;Min_cycle;Max_cycle;Signal;HPM_P1;HPM_P2
2023/04/12 00:00:37;;;;;;;;;;;20.00;41.80;;;;;;5111742;27;20354;-58
2023/04/12 00:03:06;;;;;;;;;;;20.00;41.70;;;;;;5129439;27;19920;-58
2023/04/12 00:05:33;;;;;;;;;;;20.00;41.70;;;;;;5105650;28;19969;-58
2023/04/12 00:08:01;;;;;;;;;;;20.00;41.80;;;;;;5109528;28;19941;-58
2023/04/12 00:10:27;;;;;;;;;;;20.00;41.70;;;;;;5095585;28;19920;-58
2023/04/12 00:12:54;;;;;;;;;;;20.00;41.70;;;;;;5101682;28;19920;-59
2023/04/12 00:15:21;;;;;;;;;;;20.00;41.70;;;;;;5104825;28;19919;-58
2023/04/12 00:17:48;;;;;;;;;;;20.00;41.70;;;;;;5114124;28;19929;-58
2023/04/12 00:20:17;;;;;;;;;;;20.00;41.70;;;;;;5120676;27;19920;-58
2023/04/12 00:22:43;;;;;;;;;;;20.00;41.70;;;;;;5116041;28;19919;-59
2023/04/12 00:25:10;;;;;;;;;;;20.00;41.70;;;;;;5115558;27;20010;-58
2023/04/12 00:27:37;;;;;;;;;;;20.00;41.70;;;;;;5117395;27;19979;-58
2023/04/12 00:30:06;;;;;;;;;;;20.00;41.70;;;;;;5115761;27;20380;-58
2023/04/12 00:32:32;;;;;;;;;;;20.00;41.60;;;;;;5117152;27;20022;-59
2023/04/12 00:34:59;;;;;;;;;;;20.00;41.60;;;;;;5097603;28;19929;-58
2023/04/12 00:37:27;;;;;;;;;;;20.00;41.70;;;;;;5115097;28;19947;-58
2023/04/12 00:39:54;;;;;;;;;;;20.00;41.60;;;;;;5096503;28;19920;-58
2023/04/12 00:42:21;;;;;;;;;;;20.00;41.60;;;;;;5111964;28;19919;-59
2023/04/12 00:44:48;;;;;;;;;;;20.00;41.60;;;;;;5114045;28;19919;-59
2023/04/12 00:47:14;;;;;;;;;;;20.00;41.60;;;;;;5096500;28;19965;-59
2023/04/12 00:49:41;;;;;;;;;;;20.00;41.60;;;;;;5114955;28;20312;-59
2023/04/12 00:52:08;;;;;;;;;;;20.00;41.60;;;;;;5095061;28;20387;-59
2023/04/12 00:54:37;;;;;;;;;;;20.00;41.60;;;;;;5114814;28;19919;-59
2023/04/12 00:57:03;;;;;;;;;;;20.00;41.60;;;;;;5096844;28;20311;-59
2023/04/12 00:59:30;;;;;;;;;;;19.90;41.50;;;;;;5114952;28;19920;-59
2023/04/12 01:01:57;;;;;;;;;;;20.00;41.50;;;;;;5097317;28;19926;-59
2023/04/12 01:04:25;;;;;;;;;;;20.00;41.60;;;;;;5096387;28;19920;-59
2023/04/12 01:06:56;;;;;;;;;;;19.90;41.40;;;;;;5097218;28;20010;-59
2023/04/12 01:09:23;;;;;;;;;;;19.90;41.50;;;;;;5114580;28;19924;-59
2023/04/12 01:11:55;;;;;;;;;;;19.90;41.40;;;;;;5096694;28;19968;-59
2023/04/12 01:14:22;;;;;;;;;;;20.00;41.50;;;;;;5076431;28;20288;-59
2023/04/12 01:16:50;;;;;;;;;;;19.90;41.40;;;;;;5092794;28;19920;-59
2023/04/12 01:19:44;;;;;;;;;;;19.90;41.40;;;;;;5097077;28;19926;-59
2023/04/12 01:22:13;;;;;;;;;;;19.90;41.40;;;;;;5096268;28;19919;-59
2023/04/12 01:24:43;;;;;;;;;;;19.90;41.40;;;;;;5095948;28;19920;-59
2023/04/12 01:27:16;;;;;;;;;;;19.90;41.40;;;;;;5094716;28;19927;-59
2023/04/12 01:29:48;;;;;;;;;;;19.90;41.40;;;;;;5096657;28;19923;-59
2023/04/12 01:32:15;;;;;;;;;;;19.90;41.30;;;;;;5112785;28;20008;-59
2023/04/12 01:34:42;;;;;;;;;;;19.90;41.40;;;;;;5096087;28;19931;-59
2023/04/12 01:37:08;;;;;;;;;;;19.90;41.30;;;;;;5094115;28;19919;-59
2023/04/12 01:39:35;;;;;;;;;;;19.90;41.30;;;;;;5113426;28;19968;-59
2023/04/12 01:42:02;;;;;;;;;;;19.90;41.30;;;;;;5096698;28;19946;-59
2023/04/12 01:44:29;;;;;;;;;;;19.90;41.30;;;;;;5096705;28;19919;-59
2023/04/12 01:46:57;;;;;;;;;;;19.90;41.30;;;;;;5113176;28;19920;-59
2023/04/12 01:49:24;;;;;;;;;;;19.90;41.30;;;;;;5112437;28;19969;-59
2023/04/12 01:51:52;;;;;;;;;;;19.90;41.30;;;;;;5112948;28;20381;-59
2023/04/12 01:54:19;;;;;;;;;;;19.90;41.30;;;;;;5113296;28;19920;-59
2023/04/12 01:56:47;;;;;;;;;;;19.90;41.30;;;;;;5112976;28;19927;-59
2023/04/12 01:59:14;;;;;;;;;;;19.90;41.30;;;;;;5130169;28;19927;-59
2023/04/12 02:01:41;;;;;;;;;;;19.90;41.30;;;;;;5113575;28;20019;-59
2023/04/12 02:04:09;;;;;;;;;;;19.90;41.30;;;;;;5112925;28;19965;-59
2023/04/12 02:06:36;;;;;;;;;;;19.90;41.30;;;;;;5112610;28;19924;-59
2023/04/12 02:09:04;;;;;;;;;;;19.90;41.30;;;;;;5112733;28;19942;-59
2023/04/12 02:11:31;;;;;;;;;;;19.90;41.20;;;;;;5110706;28;19920;-59
2023/04/12 02:13:58;;;;;;;;;;;19.90;41.30;;;;;;5101460;28;19941;-59
2023/04/12 02:16:28;;;;;;;;;;;19.90;41.20;;;;;;5112007;28;19919;-59
2023/04/12 02:18:56;;;;;;;;;;;19.90;41.20;;;;;;5095680;28;19926;-59
2023/04/12 02:21:25;;;;;;;;;;;19.90;41.20;;;;;;5122448;28;19923;-59
2023/04/12 02:23:51;;;;;;;;;;;19.90;41.20;;;;;;5113362;28;20400;-58
2023/04/12 02:26:18;;;;;;;;;;;19.90;41.20;;;;;;5097931;28;20375;-58
2023/04/12 02:28:45;;;;;;;;;;;19.90;41.20;;;;;;5097181;28;19919;-58
2023/04/12 02:31:14;;;;;;;;;;;19.90;41.20;;;;;;5079531;28;20015;-58
2023/04/12 02:33:41;;;;;;;;;;;19.90;41.20;;;;;;5096282;28;19923;-58
2023/04/12 02:36:10;;;;;;;;;;;19.90;41.20;;;;;;5095242;28;20266;-58
2023/04/12 02:38:38;;;;;;;;;;;19.90;41.20;;;;;;5094830;28;19950;-59
2023/04/12 02:41:05;;;;;;;;;;;19.90;41.20;;;;;;5094977;28;19927;-59
2023/04/12 02:43:32;;;;;;;;;;;19.90;41.10;;;;;;5077089;28;19920;-57
2023/04/12 02:45:59;;;;;;;;;;;19.90;41.10;;;;;;5076998;28;19962;-59
2023/04/12 02:48:26;;;;;;;;;;;19.90;41.10;;;;;;5078347;28;19967;-59
2023/04/12 02:50:52;;;;;;;;;;;19.90;41.10;;;;;;5099337;27;20383;-59
2023/04/12 02:53:20;;;;;;;;;;;19.90;41.10;;;;;;5112348;28;19920;-59
2023/04/12 02:55:48;;;;;;;;;;;19.90;41.10;;;;;;5112918;28;20014;-60
2023/04/12 02:58:15;;;;;;;;;;;19.90;41.10;;;;;;5098050;28;19924;-60
2023/04/12 03:00:42;;;;;;;;;;;19.90;41.10;;;;;;5098937;28;19924;-57
2023/04/12 03:03:09;;;;;;;;;;;19.90;41.10;;;;;;5097563;28;19920;-57
2023/04/12 03:05:36;;;;;;;;;;;19.90;41.00;;;;;;5095810;28;19926;-58
2023/04/12 03:08:03;;;;;;;;;;;19.90;41.00;;;;;;5106973;28;19924;-58
2023/04/12 03:10:30;;;;;;;;;;;19.90;41.00;;;;;;5109275;28;19920;-58
2023/04/12 03:12:58;;;;;;;;;;;19.90;41.00;;;;;;5095646;28;19923;-58
2023/04/12 03:15:26;;;;;;;;;;;19.90;41.00;;;;;;5112095;28;19923;-59
2023/04/12 03:17:53;;;;;;;;;;;19.90;41.00;;;;;;5082923;28;19927;-58
2023/04/12 03:20:20;;;;;;;;;;;19.90;41.00;;;;;;5109105;28;19920;-58
2023/04/12 03:22:47;;;;;;;;;;;19.90;41.00;;;;;;5111732;28;19927;-59
2023/04/12 03:25:14;;;;;;;;;;;19.90;41.00;;;;;;5108057;27;20002;-58
2023/04/12 03:27:41;;;;;;;;;;;19.90;41.00;;;;;;5117969;27;19923;-58
2023/04/12 03:30:10;;;;;;;;;;;19.90;40.90;;;;;;5094846;28;19920;-58
2023/04/12 03:32:37;;;;;;;;;;;19.90;40.90;;;;;;5096621;28;19920;-58
2023/04/12 03:35:04;;;;;;;;;;;19.90;40.90;;;;;;5116615;28;19920;-58
2023/04/12 03:37:30;;;;;;;;;;;19.90;40.90;;;;;;5098000;28;19962;-58
2023/04/12 03:39:57;;;;;;;;;;;19.90;40.90;;;;;;5082102;28;19927;-58
2023/04/12 03:42:24;;;;;;;;;;;19.90;40.90;;;;;;5077366;28;19969;-59
2023/04/12 03:44:51;;;;;;;;;;;19.80;40.80;;;;;;5075807;28;19927;-59
2023/04/12 03:47:19;;;;;;;;;;;19.90;40.80;;;;;;5078432;28;19924;-59
2023/04/12 03:49:46;;;;;;;;;;;19.90;40.90;;;;;;5094191;28;19974;-59
2023/04/12 03:52:13;;;;;;;;;;;19.90;40.90;;;;;;5095000;28;19920;-59
2023/04/12 03:54:40;;;;;;;;;;;19.90;40.80;;;;;;5077263;28;19920;-59
2023/04/12 03:57:07;;;;;;;;;;;19.80;40.80;;;;;;5077731;28;19920;-59
2023/04/12 03:59:34;;;;;;;;;;;19.80;40.80;;;;;;5077796;28;19920;-59
2023/04/12 04:02:00;;;;;;;;;;;19.80;40.80;;;;;;5093893;28;19920;-59
2023/04/12 04:04:29;;;;;;;;;;;19.80;40.80;;;;;;5099442;22;19939;-59
2023/04/12 04:06:56;;;;;;;;;;;19.90;40.80;;;;;;5032928;28;19920;-59
2023/04/12 04:09:22;;;;;;;;;;;19.80;40.70;;;;;;5049286;28;19928;-58
2023/04/12 04:11:50;;;;;;;;;;;19.90;40.80;;;;;;5032368;28;19978;-58
2023/04/12 04:14:17;;;;;;;;;;;19.80;40.70;;;;;;5032017;28;19928;-58
2023/04/12 04:16:44;;;;;;;;;;;19.80;41.30;;;;;;5032841;28;19920;-58
2023/04/12 04:19:10;;;;;;;;;;;19.80;40.70;;;;;;5048801;28;20276;-58
2023/04/12 04:21:39;;;;;;;;;;;19.80;40.70;;;;;;5049636;28;19943;-58
2023/04/12 04:24:08;;;;;;;;;;;19.80;40.70;;;;;;5015405;28;19931;-58
2023/04/12 04:26:37;;;;;;;;;;;19.80;40.70;;;;;;5016188;28;20007;-59
2023/04/12 04:29:04;;;;;;;;;;;19.80;40.70;;;;;;5032695;28;20036;-59
2023/04/12 04:31:33;;;;;;;;;;;19.80;40.70;;;;;;5049846;28;19984;-59
2023/04/12 04:34:02;;;;;;;;;;;19.80;40.70;;;;;;5032581;28;19921;-59
2023/04/12 04:36:28;;;;;;;;;;;19.80;40.60;;;;;;5031202;28;19924;-59
2023/04/12 04:38:57;;;;;;;;;;;19.80;40.60;;;;;;5047877;28;20298;-59
2023/04/12 04:41:23;;;;;;;;;;;19.80;40.60;;;;;;5039344;28;19921;-59
2023/04/12 04:43:50;;;;;;;;;;;19.80;40.60;;;;;;5050169;28;19921;-59
2023/04/12 04:46:19;;;;;;;;;;;19.80;40.60;;;;;;5039233;28;19986;-59
2023/04/12 04:48:46;;;;;;;;;;;19.80;40.70;;;;;;5045740;28;20275;-59
2023/04/12 04:51:13;;;;;;;;;;;19.80;40.60;;;;;;5054130;28;19963;-59
2023/04/12 04:53:40;;;;;;;;;;;19.80;40.60;;;;;;5049049;28;19928;-59
2023/04/12 04:56:09;;;;;;;;;;;19.80;40.60;;;;;;5030834;28;19920;-59
2023/04/12 04:58:36;;;;;;;;;;;19.80;40.60;;;;;;5032304;28;20369;-59
2023/04/12 05:01:02;;;;;;;;;;;19.80;40.60;;;;;;5033894;28;19932;-59
2023/04/12 05:03:29;;;;;;;;;;;19.80;40.60;;;;;;5028730;28;20038;-59
2023/04/12 05:05:56;;;;;;;;;;;19.80;40.50;;;;;;5035846;28;19925;-59
2023/04/12 05:08:23;;;;;;;;;;;19.80;40.60;;;;;;5056573;28;19925;-59
2023/04/12 05:10:50;;;;;;;;;;;19.80;40.50;;;;;;5032432;28;19925;-59
2023/04/12 05:13:21;;;;;;;;;;;19.80;40.50;;;;;;5038036;28;20367;-60
2023/04/12 05:15:47;;;;;;;;;;;19.80;40.50;;;;;;5036032;28;19966;-59
2023/04/12 05:18:14;;;;;;;;;;;19.80;40.50;;;;;;5038041;28;19943;-58
2023/04/12 05:20:41;;;;;;;;;;;19.80;40.50;;;;;;5040341;28;19932;-58
2023/04/12 05:23:08;;;;;;;;;;;19.80;40.50;;;;;;5037548;28;19921;-58
2023/04/12 05:25:34;;;;;;;;;;;19.80;40.50;;;;;;5042857;28;19970;-58
2023/04/12 05:28:01;;;;;;;;;;;19.80;40.50;;;;;;5056767;28;19937;-58
2023/04/12 05:30:30;;;;;;;;;;;19.80;40.50;;;;;;5040473;28;19955;-58
2023/04/12 05:32:57;;;;;;;;;;;19.80;40.50;;;;;;5038269;28;19921;-58
2023/04/12 05:35:24;;;;;;;;;;;19.80;40.50;;;;;;5022030;28;19927;-58
2023/04/12 05:37:50;;;;;;;;;;;19.80;40.50;;;;;;5042768;28;19926;-59
2023/04/12 05:40:17;;;;;;;;;;;19.80;40.50;;;;;;5055977;28;20309;-58
2023/04/12 05:42:44;;;;;;;;;;;19.80;40.50;;;;;;5039474;28;19920;-59
2023/04/12 05:45:11;;;;;;;;;;;19.80;40.50;;;;;;5041952;28;19962;-58
2023/04/12 05:47:40;;;;;;;;;;;19.80;40.40;;;;;;5041044;28;19921;-58
2023/04/12 05:50:07;;;;;;;;;;;19.80;40.40;;;;;;5032503;28;19963;-59
2023/04/12 05:52:34;;;;;;;;;;;19.80;41.00;;;;;;5040681;28;19921;-58
2023/04/12 05:55:01;;;;;;;;;;;19.80;40.40;;;;;;5060896;28;19960;-58
2023/04/12 05:57:28;;;;;;;;;;;19.80;40.40;;;;;;5039205;28;19998;-58
2023/04/12 05:59:55;;;;;;;;;;;19.80;40.40;;;;;;5041990;28;19920;-58
2023/04/12 06:02:24;;;;;;;;;;;19.80;40.40;;;;;;5035586;28;19977;-58
2023/04/12 06:04:54;;;;;;;;;;;19.80;40.40;;;;;;5038371;28;19923;-59
2023/04/12 06:07:21;;;;;;;;;;;19.80;40.40;;;;;;5037676;28;20004;-59
2023/04/12 06:09:48;;;;;;;;;;;19.80;40.40;;;;;;5041463;28;19921;-58
2023/04/12 06:12:15;;;;;;;;;;;19.80;40.40;;;;;;5044742;28;20262;-58
2023/04/12 06:14:42;;;;;;;;;;;19.80;40.30;;;;;;5064118;28;19921;-58
2023/04/12 06:17:09;;;;;;;;;;;19.80;40.30;;;;;;5038545;28;20363;-59
2023/04/12 06:19:35;;;;;;;;;;;19.80;40.30;;;;;;5059615;28;19977;-58
2023/04/12 06:22:03;;;;;;;;;;;19.80;40.30;;;;;;5044786;28;19925;-58
2023/04/12 06:24:30;;;;;;;;;;;19.80;40.30;;;;;;5048510;28;19967;-58
2023/04/12 06:26:57;;;;;;;;;;;19.80;40.30;;;;;;5044317;28;20278;-58
2023/04/12 06:29:24;;;;;;;;;;;19.80;40.30;;;;;;5045687;28;19931;-59
2023/04/12 06:31:51;;;;;;;;;;;19.80;40.90;;;;;;5021233;28;19933;-58
2023/04/12 06:34:17;;;;;;;;;;;19.80;40.30;;;;;;5048013;28;19921;-58
2023/04/12 06:36:46;;;;;;;;;;;19.80;40.30;;;;;;5028508;28;19936;-59
2023/04/12 06:39:15;;;;;;;;;;;19.80;40.30;;;;;;5047571;28;19927;-59
2023/04/12 06:41:42;;;;;;;;;;;19.80;40.30;;;;;;5031553;28;19921;-59
2023/04/12 06:44:09;;;;;;;;;;;19.80;40.30;;;;;;5025965;28;20149;-59
2023/04/12 06:46:35;;;;;;;;;;;19.80;40.30;;;;;;5030918;28;19921;-59
2023/04/12 06:49:02;;;;;;;;;;;19.80;40.30;;;;;;5029492;28;19921;-59
2023/04/12 06:51:29;;;;;;;;;;;19.80;40.30;;;;;;5027245;28;19975;-59
2023/04/12 06:53:56;;;;;;;;;;;19.80;40.30;;;;;;5026905;28;19924;-59
2023/04/12 06:56:25;;;;;;;;;;;19.80;40.40;;;;;;5028536;28;19925;-59
2023/04/12 06:58:52;;;;;;;;;;;19.80;40.40;;;;;;5024862;28;19921;-59
2023/04/12 07:01:18;;;;;;;;;;;19.80;40.40;;;;;;5024956;28;19971;-59
2023/04/12 07:03:45;;;;;;;;;;;19.80;40.40;;;;;;5040164;28;19967;-58
2023/04/12 07:06:12;;;;;;;;;;;19.80;40.40;;;;;;5044739;28;19932;-58
2023/04/12 07:08:39;;;;;;;;;;;19.80;40.40;;;;;;5049108;28;20202;-59
2023/04/12 07:11:05;;;;;;;;;;;19.80;40.40;;;;;;5031402;28;20005;-58
2023/04/12 07:13:34;;;;;;;;;;;19.80;40.40;;;;;;5041534;28;19929;-58
2023/04/12 07:16:02;;;;;;;;;;;19.80;40.40;;;;;;5032643;28;20386;-59
2023/04/12 07:18:28;;;;;;;;;;;19.80;40.40;;;;;;5050494;28;19933;-58
2023/04/12 07:20:55;;;;;;;;;;;19.80;40.40;;;;;;5030477;28;19921;-59
2023/04/12 07:23:22;;;;;;;;;;;19.80;40.50;;;;;;5031171;28;20019;-59
2023/04/12 07:25:49;;;;;;;;;;;19.80;40.50;;;;;;5032365;28;19967;-59
2023/04/12 07:28:16;;;;;;;;;;;19.80;40.50;;;;;;5031494;28;19978;-59
2023/04/12 07:30:45;;;;;;;;;;;19.80;40.50;;;;;;5029287;28;19982;-59
2023/04/12 07:33:11;;;;;;;;;;;19.80;40.50;;;;;;5032054;28;19994;-59
2023/04/12 07:35:38;;;;;;;;;;;19.80;40.50;;;;;;5033391;28;19943;-59
2023/04/12 07:38:05;;;;;;;;;;;19.90;40.80;;;;;;5029733;28;19951;-59
2023/04/12 07:40:32;;;;;;;;;;;19.90;40.60;;;;;;5029783;28;19978;-58
2023/04/12 07:42:58;;;;;;;;;;;19.90;40.60;;;;;;5045633;28;19921;-58
2023/04/12 07:45:26;;;;;;;;;;;19.90;40.60;;;;;;5036494;28;19966;-59
2023/04/12 07:47:54;;;;;;;;;;;19.90;40.60;;;;;;5029405;28;19925;-58
2023/04/12 07:50:21;;;;;;;;;;;19.90;40.60;;;;;;5042265;28;19924;-59
2023/04/12 07:52:48;;;;;;;;;;;19.90;40.60;;;;;;5025422;28;19920;-58
2023/04/12 07:55:14;;;;;;;;;;;19.90;40.60;;;;;;5036768;28;19924;-58
2023/04/12 07:57:41;;;;;;;;;;;19.90;40.60;;;;;;5048605;28;19921;-59
2023/04/12 08:00:09;;;;;;;;;;;19.90;40.60;;;;;;5027796;28;19966;-59
2023/04/12 08:02:36;;;;;;;;;;;19.90;40.60;;;;;;5031295;28;19927;-59
2023/04/12 08:05:04;;;;;;;;;;;19.90;40.60;;;;;;5039048;28;19959;-59
2023/04/12 08:07:32;;;;;;;;;;;19.90;40.60;;;;;;5049987;28;19921;-59
2023/04/12 08:09:58;;;;;;;;;;;19.90;40.60;;;;;;5031536;28;19932;-59
2023/04/12 08:12:26;;;;;;;;;;;19.90;40.60;;;;;;5031315;28;19978;-59
2023/04/12 08:14:53;;;;;;;;;;;19.90;40.60;;;;;;5029293;28;20313;-59
2023/04/12 08:17:19;;;;;;;;;;;19.90;40.60;;;;;;5025801;28;19940;-59
2023/04/12 08:19:46;;;;;;;;;;;19.90;40.60;;;;;;5033267;28;20338;-60
2023/04/12 08:22:15;;;;;;;;;;;19.90;40.60;;;;;;5030023;28;19921;-59
2023/04/12 08:24:41;;;;;;;;;;;19.90;40.60;;;;;;5047585;28;19928;-59
2023/04/12 08:27:08;;;;;;;;;;;19.90;40.60;;;;;;5022578;28;19966;-59
2023/04/12 08:29:35;;;;;;;;;;;19.90;40.60;;;;;;5047935;28;19925;-59
2023/04/12 08:32:02;;;;;;;;;;;19.90;40.60;;;;;;5029017;28;19931;-59
2023/04/12 08:34:29;;;;;;;;;;;19.90;40.60;;;;;;5030930;28;19924;-60
2023/04/12 08:36:59;;;;;;;;;;;19.90;40.60;;;;;;5031645;28;19944;-59
2023/04/12 08:39:27;;;;;;;;;;;19.90;40.60;;;;;;5036881;28;19925;-59
2023/04/12 08:41:54;;;;;;;;;;;19.90;40.60;;;;;;5029485;28;19979;-59
2023/04/12 08:44:21;;;;;;;;;;;19.90;40.70;;;;;;5048270;28;19921;-59
2023/04/12 08:46:47;;;;;;;;;;;19.90;40.60;;;;;;5030947;28;20428;-59
2023/04/12 08:49:14;;;;;;;;;;;19.90;40.70;;;;;;5047808;28;19925;-59
2023/04/12 08:51:41;;;;;;;;;;;19.90;40.70;;;;;;5028503;28;19936;-60
2023/04/12 08:54:08;;;;;;;;;;;19.90;40.70;;;;;;5033707;28;19925;-59
2023/04/12 08:56:36;;;;;;;;;;;19.90;40.70;;;;;;5049424;28;19968;-59
2023/04/12 08:59:02;;;;;;;;;;;19.90;40.70;;;;;;5029061;28;20237;-60
2023/04/12 09:01:29;;;;;;;;;;;19.90;40.80;;;;;;5030879;28;19928;-59
2023/04/12 09:03:56;;;;;;;;;;;19.90;40.70;;;;;;5029578;28;20023;-59
2023/04/12 09:06:23;;;;;;;;;;;19.90;40.70;;;;;;5047804;28;20382;-59
2023/04/12 09:08:53;;;;;;;;;;;19.90;40.70;;;;;;5028428;28;19928;-59
2023/04/12 09:11:23;;;;;;;;;;;19.90;40.70;;;;;;5044349;28;19931;-60
2023/04/12 09:13:51;;;;;;;;;;;19.90;40.70;;;;;;5030710;28;20023;-59
2023/04/12 09:16:20;;;;;;;;;;;19.90;40.70;;;;;;5030675;28;19921;-60
2023/04/12 09:18:50;;;;;;;;;;;19.90;40.70;;;;;;5046464;28;20006;-60
2023/04/12 09:21:18;;;;;;;;;;;19.90;40.70;;;;;;5031946;28;19932;-59
2023/04/12 09:23:44;;;;;;;;;;;19.90;40.70;;;;;;5027169;28;19928;-59
2023/04/12 09:26:19;;;;;;;;;;;19.90;40.70;;;;;;5024751;28;19935;-60
2023/04/12 09:28:46;;;;;;;;;;;20.00;40.80;;;;;;5026212;28;20018;-59
2023/04/12 09:31:17;;;;;;;;;;;19.90;40.70;;;;;;5036477;28;20299;-59
2023/04/12 09:33:44;;;;;;;;;;;19.90;40.80;;;;;;5025326;28;20059;-60
2023/04/12 09:36:13;;;;;;;;;;;19.90;40.80;;;;;;5023490;28;19924;-59
2023/04/12 09:38:41;;;;;;;;;;;19.90;40.80;;;;;;5028199;28;19956;-60
2023/04/12 09:41:18;;;;;;;;;;;20.00;40.90;;;;;;5034500;28;19995;-60
2023/04/12 09:43:45;;;;;;;;;;;20.00;40.90;;;;;;5033328;28;20114;-59
2023/04/12 09:46:12;;;;;;;;;;;19.90;40.80;;;;;;5034677;28;19967;-60
2023/04/12 09:48:41;;;;;;;;;;;19.90;40.80;;;;;;5052734;28;19975;-60
2023/04/12 09:51:07;;;;;;;;;;;19.90;40.80;;;;;;5035352;28;20010;-59
2023/04/12 09:53:34;;;;;;;;;;;20.00;40.90;;;;;;5032779;28;20011;-60
2023/04/12 09:56:01;;;;;;;;;;;20.00;40.90;;;;;;5035616;28;19925;-60
2023/04/12 09:58:28;;;;;;;;;;;20.00;40.90;;;;;;5034424;28;20011;-60
2023/04/12 10:00:55;;;;;;;;;;;20.00;40.90;;;;;;5034965;28;19921;-60
2023/04/12 10:03:22;;;;;;;;;;;20.00;41.00;;;;;;5032303;28;19929;-60
2023/04/12 10:05:50;;;;;;;;;;;20.00;41.00;;;;;;5035159;28;19921;-60
2023/04/12 10:08:17;;;;;;;;;;;20.00;41.00;;;;;;5034546;28;19975;-59
2023/04/12 10:10:44;;;;;;;;;;;20.00;40.90;;;;;;5033055;28;20023;-59
2023/04/12 10:13:11;;;;;;;;;;;20.00;41.00;;;;;;5051982;28;19929;-59
2023/04/12 10:15:38;;;;;;;;;;;20.00;41.00;;;;;;5034516;28;19921;-60
2023/04/12 10:18:05;;;;;;;;;;;20.00;41.00;;;;;;5051843;28;20430;-59
2023/04/12 10:20:32;;;;;;;;;;;20.00;41.00;;;;;;5032989;28;19921;-60
2023/04/12 10:23:00;;;;;;;;;;;20.00;41.00;;;;;;5034717;28;19925;-60
2023/04/12 10:25:29;;;;;;;;;;;20.00;41.00;;;;;;5052037;28;19991;-59
2023/04/12 10:27:56;;;;;;;;;;;20.00;41.00;;;;;;5052038;28;19920;-58
2023/04/12 10:30:23;;;;;;;;;;;20.00;41.00;;;;;;5032408;28;19932;-59
2023/04/12 10:32:50;;;;;;;;;;;20.00;41.00;;;;;;5034023;28;19967;-59
2023/04/12 10:35:17;;;;;;;;;;;20.00;41.00;;;;;;5040921;28;19928;-59
2023/04/12 10:38:01;;;;;;;;;;;20.00;41.00;;;;;;5047402;28;19929;-59
2023/04/12 10:40:28;;;;;;;;;;;20.00;41.00;;;;;;5026091;28;19924;-59
2023/04/12 10:43:13;;;;;;;;;;;20.00;41.10;;;;;;5034274;28;20340;-59
2023/04/12 10:45:40;;;;;;;;;;;20.00;41.10;;;;;;5034132;28;20026;-59
2023/04/12 10:48:07;;;;;;;;;;;20.00;41.10;;;;;;5031373;28;19928;-59
2023/04/12 10:50:34;;;;;;;;;;;20.00;41.10;;;;;;5034132;28;20279;-59
2023/04/12 10:53:19;;;;;;;;;;;20.00;41.10;;;;;;5033481;28;20461;-59
2023/04/12 10:55:47;;;;;;;;;;;20.00;41.10;;;;;;5051141;28;19921;-60
2023/04/12 10:58:49;;;;;;;;;;;20.00;41.10;;;;;;5033580;28;19928;-60
2023/04/12 11:01:17;;;;;;;;;;;20.00;41.10;;;;;;5033099;28;19920;-59
2023/04/12 11:03:58;;;;;;;;;;;20.00;41.10;;;;;;5033565;28;20044;-59
2023/04/12 11:06:39;;;;;;;;;;;20.00;41.10;;;;;;5050732;28;19921;-60
2023/04/12 11:09:06;;;;;;;;;;;20.00;41.10;;;;;;5033560;28;19925;-60
2023/04/12 11:11:35;;;;;;;;;;;20.00;41.10;;;;;;5033126;28;19920;-60
2023/04/12 11:14:01;;;;;;;;;;;20.00;41.20;;;;;;5050961;28;19944;-60
2023/04/12 11:16:28;;;;;;;;;;;20.00;41.10;;;;;;5033540;28;19929;-59
2023/04/12 11:18:55;;;;;;;;;;;20.00;41.10;;;;;;5033335;28;19924;-59
2023/04/12 11:21:22;;;;;;;;;;;20.00;41.20;;;;;;5033304;28;19924;-59
2023/04/12 11:23:49;;;;;;;;;;;20.00;41.20;;;;;;5033387;28;20015;-59
2023/04/12 11:26:19;;;;;;;;;;;20.00;41.20;;;;;;5044200;28;19924;-59
2023/04/12 11:28:51;;;;;;;;;;;20.00;41.20;;;;;;5013358;28;19921;-59
2023/04/12 11:31:20;;;;;;;;;;;20.00;41.20;;;;;;5029425;28;20279;-59
2023/04/12 11:33:46;;;;;;;;;;;20.00;41.20;;;;;;5032944;28;19928;-59
2023/04/12 11:36:13;;;;;;;;;;;20.00;41.20;;;;;;5033538;28;19925;-59
2023/04/12 11:38:40;;;;;;;;;;;20.00;41.20;;;;;;5020329;28;19921;-59
2023/04/12 11:41:07;;;;;;;;;;;20.00;41.20;;;;;;5027358;28;19927;-59
2023/04/12 11:43:34;;;;;;;;;;;20.00;41.20;;;;;;5032933;28;19924;-59
2023/04/12 11:46:02;;;;;;;;;;;20.00;41.20;;;;;;5033214;28;19921;-59
2023/04/12 11:48:30;;;;;;;;;;;20.00;41.20;;;;;;5032216;28;19928;-59
2023/04/12 11:50:56;;;;;;;;;;;20.00;41.20;;;;;;5033187;28;20345;-59
2023/04/12 11:53:27;;;;;;;;;;;20.00;41.20;;;;;;5032464;28;20310;-59
2023/04/12 11:55:54;;;;;;;;;;;20.00;41.20;;;;;;5051046;28;19920;-59
2023/04/12 11:58:22;;;;;;;;;;;20.00;41.20;;;;;;5050541;28;19948;-59
2023/04/12 12:00:49;;;;;;;;;;;20.00;41.20;;;;;;5050414;28;19924;-59
2023/04/12 12:03:18;;;;;;;;;;;20.00;41.20;;;;;;5030779;28;20207;-59
2023/04/12 12:05:45;;;;;;;;;;;20.00;41.20;;;;;;5032949;28;19970;-59
2023/04/12 12:08:12;;;;;;;;;;;20.00;41.20;;;;;;5032440;28;19928;-60
2023/04/12 12:10:39;;;;;;;;;;;20.00;41.20;;;;;;5033770;28;19928;-60
2023/04/12 12:13:09;;;;;;;;;;;20.00;41.20;;;;;;5032720;28;19921;-59
2023/04/12 12:15:36;;;;;;;;;;;20.00;41.20;;;;;;5032473;28;20157;-60
2023/04/12 12:18:03;;;;;;;;;;;20.00;41.20;;;;;;5032288;28;19921;-60
2023/04/12 12:20:31;;;;;;;;;;;20.00;41.20;;;;;;5033248;28;19943;-60
2023/04/12 12:22:58;;;;;;;;;;;20.00;41.20;;;;;;5033318;28;20317;-59
2023/04/12 12:25:25;;;;;;;;;;;20.00;41.20;;;;;;5050377;28;19921;-59
2023/04/12 12:27:56;;;;;;;;;;;20.00;41.20;;;;;;5032451;28;19972;-59
2023/04/12 12:30:23;;;;;;;;;;;20.00;41.30;;;;;;5032016;28;19925;-58
2023/04/12 12:32:51;;;;;;;;;;;20.00;41.20;;;;;;5050447;28;20316;-59
2023/04/12 12:35:18;;;;;;;;;;;20.00;41.30;;;;;;5032718;28;20278;-59
2023/04/12 12:37:51;;;;;;;;;;;20.00;41.30;;;;;;5029011;28;19925;-60
2023/04/12 12:40:20;;;;;;;;;;;20.00;41.30;;;;;;5033652;28;20002;-60
2023/04/12 12:42:47;;;;;;;;;;;20.00;41.30;;;;;;5032748;28;19967;-60
2023/04/12 12:45:14;;;;;;;;;;;20.00;41.30;;;;;;5031570;28;19932;-59
2023/04/12 12:47:48;;;;;;;;;;;20.00;41.30;;;;;;5032184;28;19932;-60
2023/04/12 12:50:16;;;;;;;;;;;20.00;41.30;;;;;;5032488;28;19960;-60
2023/04/12 12:52:43;;;;;;;;;;;20.00;41.30;;;;;;5032524;28;20279;-60
2023/04/12 12:55:11;;;;;;;;;;;20.00;41.30;;;;;;5032334;28;19971;-59
2023/04/12 12:57:38;;;;;;;;;;;20.00;41.30;;;;;;5032823;28;19925;-59
2023/04/12 13:00:05;;;;;;;;;;;20.00;41.30;;;;;;5031123;28;19920;-59
2023/04/12 13:02:32;;;;;;;;;;;20.00;41.30;;;;;;5031467;28;19927;-59
2023/04/12 13:05:01;;;;;;;;;;;20.00;41.30;;;;;;5031952;28;19951;-60
2023/04/12 13:07:28;;;;;;;;;;;20.00;41.30;;;;;;5031948;28;20160;-60
2023/04/12 13:09:55;;;;;;;;;;;20.00;41.30;;;;;;5031337;28;19925;-60
2023/04/12 13:12:24;;;;;;;;;;;20.00;41.40;;;;;;5049609;28;19921;-60
2023/04/12 13:14:50;;;;;;;;;;;20.00;41.30;;;;;;5030944;28;20006;-60
2023/04/12 13:17:17;;;;;;;;;;;20.00;41.40;;;;;;5048884;28;19929;-60
2023/04/12 13:19:44;;;;;;;;;;;20.00;41.30;;;;;;5031379;28;19921;-60
2023/04/12 13:22:11;;;;;;;;;;;20.00;41.30;;;;;;5031489;28;19921;-60
2023/04/12 13:24:38;;;;;;;;;;;20.00;41.30;;;;;;5031503;28;19921;-60
2023/04/12 13:27:05;;;;;;;;;;;20.00;41.30;;;;;;5028029;28;19928;-59
2023/04/12 13:29:33;;;;;;;;;;;20.00;41.40;;;;;;5048090;28;19955;-60
2023/04/12 13:32:00;;;;;;;;;;;20.00;41.40;;;;;;5031079;28;19928;-60
2023/04/12 13:34:26;;;;;;;;;;;20.00;41.40;;;;;;5031122;28;19924;-60
2023/04/12 13:36:53;;;;;;;;;;;20.00;41.40;;;;;;5041540;28;19994;-60
2023/04/12 13:39:21;;;;;;;;;;;20.00;41.40;;;;;;5032730;28;19929;-60
2023/04/12 13:41:48;;;;;;;;;;;20.00;41.40;;;;;;5031095;28;20402;-60
2023/04/12 13:44:14;;;;;;;;;;;20.00;41.40;;;;;;5048160;28;20149;-59
2023/04/12 13:46:43;;;;;;;;;;;20.00;41.40;;;;;;5030933;28;19921;-60
2023/04/12 13:49:09;;;;;;;;;;;20.00;41.40;;;;;;5048893;28;19956;-59
2023/04/12 13:51:36;;;;;;;;;;;20.00;41.40;;;;;;5049097;28;19967;-60
2023/04/12 13:54:03;;;;;;;;;;;20.00;41.40;;;;;;5030835;28;19921;-60
2023/04/12 13:56:30;;;;;;;;;;;20.00;41.40;;;;;;5030912;28;19960;-60
2023/04/12 13:58:57;;;;;;;;;;;20.00;41.40;;;;;;5030446;28;19921;-59
2023/04/12 14:01:24;;;;;;;;;;;20.00;41.40;;;;;;5030909;28;19978;-59
2023/04/12 14:03:53;;;;;;;;;;;20.00;41.40;;;;;;5048584;28;19920;-60
2023/04/12 14:06:20;;;;;;;;;;;20.00;41.40;;;;;;5030861;28;20019;-59
2023/04/12 14:08:47;;;;;;;;;;;20.00;41.40;;;;;;5031150;28;19921;-60
2023/04/12 14:11:14;;;;;;;;;;;20.00;41.50;;;;;;5030955;28;19921;-59
2023/04/12 14:13:40;;;;;;;;;;;20.00;41.40;;;;;;5048439;28;19932;-60
2023/04/12 14:16:08;;;;;;;;;;;20.00;41.40;;;;;;5030680;28;19925;-60
2023/04/12 14:18:34;;;;;;;;;;;20.00;41.40;;;;;;5048514;28;19927;-59